createdAt,value
2023-09-07T00:01:35.151Z,18.74
2023-09-07T00:03:43.466Z,18.73
2023-09-07T00:05:49.562Z,18.70
2023-09-07T00:07:57.265Z,18.68
2023-09-07T00:10:03.548Z,18.65
2023-09-07T00:12:09.560Z,18.64
2023-09-07T00:14:17.372Z,18.62
2023-09-07T00:16:27.832Z,18.59
2023-09-07T00:18:33.782Z,18.56
2023-09-07T00:20:41.880Z,18.56
2023-09-07T00:22:47.215Z,18.51
2023-09-07T00:24:52.558Z,18.46
2023-09-07T00:26:59.223Z,18.45
2023-09-07T00:29:04.294Z,18.42
2023-09-07T00:31:09.529Z,18.39
2023-09-07T00:33:17.120Z,18.36
2023-09-07T00:35:22.537Z,18.31
2023-09-07T00:37:30.694Z,18.30
2023-09-07T00:39:35.798Z,18.28
2023-09-07T00:41:40.902Z,18.29
2023-09-07T00:43:48.916Z,18.28
2023-09-07T00:45:59.034Z,18.28
2023-09-07T00:48:04.562Z,18.24
2023-09-07T00:50:15.155Z,18.24
2023-09-07T00:52:25.602Z,18.22
2023-09-07T00:54:28.312Z,18.19
2023-09-07T00:56:35.710Z,18.22
2023-09-07T00:58:41.883Z,18.21
2023-09-07T01:00:47.595Z,18.17
2023-09-07T01:02:50.297Z,18.15
2023-09-07T01:04:56.258Z,18.13
2023-09-07T01:07:12.236Z,18.09
2023-09-07T01:09:20.737Z,18.05
2023-09-07T01:11:26.103Z,18.02
2023-09-07T01:13:31.627Z,17.97
2023-09-07T01:15:36.816Z,17.92
2023-09-07T01:17:45.264Z,17.90
2023-09-07T01:19:50.909Z,17.89
2023-09-07T01:22:02.606Z,17.87
2023-09-07T01:24:10.465Z,17.84
2023-09-07T01:26:16.367Z,17.82
2023-09-07T01:28:23.222Z,17.78
2023-09-07T01:30:35.136Z,17.72
2023-09-07T01:32:43.904Z,17.70
2023-09-07T01:34:49.485Z,17.65
2023-09-07T01:36:57.072Z,17.59
2023-09-07T01:39:05.305Z,17.59
2023-09-07T01:41:10.525Z,17.52
2023-09-07T01:43:15.921Z,17.53
2023-09-07T01:45:21.261Z,17.50
2023-09-07T01:47:26.361Z,17.51
2023-09-07T01:49:32.787Z,17.49
2023-09-07T01:51:38.417Z,17.44
2023-09-07T01:53:43.840Z,17.38
2023-09-07T01:55:52.635Z,17.35
2023-09-07T01:58:02.415Z,17.37
2023-09-07T02:00:09.564Z,17.33
2023-09-07T02:02:15.001Z,17.28
2023-09-07T02:04:20.202Z,17.26
2023-09-07T02:06:27.917Z,17.23
2023-09-07T02:08:33.062Z,17.22
2023-09-07T02:10:38.676Z,17.15
2023-09-07T02:12:49.475Z,17.17
2023-09-07T02:14:57.052Z,17.18
2023-09-07T02:17:02.181Z,17.17
2023-09-07T02:19:08.401Z,17.17
2023-09-07T02:21:14.518Z,17.17
2023-09-07T02:23:22.572Z,17.17
2023-09-07T02:25:29.044Z,17.19
2023-09-07T02:27:31.814Z,17.23
2023-09-07T02:29:39.391Z,17.27
2023-09-07T02:31:42.885Z,17.28
2023-09-07T02:33:47.917Z,17.31
2023-09-07T02:35:56.262Z,17.35
2023-09-07T02:38:01.931Z,17.34
2023-09-07T02:40:09.044Z,17.35
2023-09-07T02:42:13.998Z,17.40
2023-09-07T02:44:20.068Z,17.44
2023-09-07T02:46:28.816Z,17.44
2023-09-07T02:48:34.231Z,17.44
2023-09-07T02:50:37.218Z,17.40
2023-09-07T02:52:43.843Z,17.38
2023-09-07T02:54:49.279Z,17.33
2023-09-07T02:56:57.400Z,17.28
2023-09-07T02:59:05.423Z,17.29
2023-09-07T03:01:12.184Z,17.28
2023-09-07T03:03:20.018Z,17.27
2023-09-07T03:05:27.495Z,17.26
2023-09-07T03:07:40.674Z,17.25
2023-09-07T03:09:48.956Z,17.26
2023-09-07T03:11:52.622Z,17.26
2023-09-07T03:13:59.833Z,17.28
2023-09-07T03:16:04.048Z,17.23
2023-09-07T03:18:12.177Z,17.17
2023-09-07T03:20:18.624Z,17.13
2023-09-07T03:22:23.892Z,17.04
2023-09-07T03:24:31.964Z,16.98
2023-09-07T03:26:37.196Z,16.91
2023-09-07T03:28:42.534Z,16.84
2023-09-07T03:30:45.245Z,16.81
2023-09-07T03:32:50.731Z,16.81
2023-09-07T03:34:56.220Z,16.86
2023-09-07T03:37:07.662Z,16.87
2023-09-07T03:39:13.214Z,16.86
2023-09-07T03:41:15.714Z,16.83
2023-09-07T03:43:21.749Z,16.84
2023-09-07T03:45:27.001Z,16.82
2023-09-07T03:47:32.354Z,16.82
2023-09-07T03:49:37.707Z,16.76
2023-09-07T03:51:43.336Z,16.77
2023-09-07T03:53:52.269Z,16.71
2023-09-07T03:56:00.210Z,16.61
2023-09-07T03:58:05.282Z,16.56
2023-09-07T04:00:10.084Z,16.52
2023-09-07T04:02:15.445Z,16.47
2023-09-07T04:04:22.047Z,16.43
2023-09-07T04:06:28.178Z,16.38
2023-09-07T04:08:33.396Z,16.38
2023-09-07T04:10:45.121Z,16.30
2023-09-07T04:12:50.353Z,16.32
2023-09-07T04:14:56.354Z,16.29
2023-09-07T04:17:02.793Z,16.33
2023-09-07T04:19:10.548Z,16.32
2023-09-07T04:21:16.579Z,16.28
2023-09-07T04:23:23.111Z,16.26
2023-09-07T04:25:30.501Z,16.22
2023-09-07T04:27:40.699Z,16.22
2023-09-07T04:29:52.101Z,16.16
2023-09-07T04:31:57.144Z,16.15
2023-09-07T04:34:05.188Z,16.11
2023-09-07T04:36:16.656Z,16.10
2023-09-07T04:38:21.977Z,16.07
2023-09-07T04:40:31.261Z,16.08
2023-09-07T04:42:39.927Z,16.04
2023-09-07T04:44:46.793Z,16.00
2023-09-07T04:46:55.679Z,16.01
2023-09-07T04:49:04.331Z,16.00
2023-09-07T04:51:10.490Z,16.02
2023-09-07T04:53:18.432Z,15.97
2023-09-07T04:55:26.873Z,16.00
2023-09-07T04:57:31.841Z,15.95
2023-09-07T04:59:39.892Z,15.86
2023-09-07T05:01:45.181Z,15.85
2023-09-07T05:03:53.159Z,15.87
2023-09-07T05:06:01.947Z,15.79
2023-09-07T05:08:09.856Z,15.92
2023-09-07T05:10:20.930Z,15.87
2023-09-07T05:12:26.371Z,15.85
2023-09-07T05:14:33.825Z,15.87
2023-09-07T05:18:12.028Z,15.93
2023-09-07T05:20:45.327Z,15.94
2023-09-07T05:23:24.655Z,15.97
2023-09-07T05:26:33.229Z,15.96
2023-09-07T05:28:57.329Z,15.96
2023-09-07T05:33:59.478Z,15.95
2023-09-07T05:36:08.052Z,15.94
2023-09-07T05:38:13.922Z,15.94
2023-09-07T05:40:17.794Z,16.01
2023-09-07T05:42:22.879Z,16.15
2023-09-07T05:44:44.903Z,16.29
2023-09-07T05:46:59.206Z,16.45
2023-09-07T05:49:07.141Z,16.59
2023-09-07T05:51:13.960Z,16.75
2023-09-07T05:53:17.022Z,16.88
2023-09-07T05:55:25.626Z,17.01
2023-09-07T05:57:30.789Z,17.11
2023-09-07T05:59:36.904Z,17.24
2023-09-07T06:01:46.457Z,17.41
2023-09-07T06:03:57.733Z,17.57
2023-09-07T06:06:08.810Z,17.73
2023-09-07T06:08:18.160Z,17.89
2023-09-07T06:10:25.715Z,18.07
2023-09-07T06:12:31.034Z,18.23
2023-09-07T06:14:36.788Z,18.42
2023-09-07T06:16:42.255Z,18.54
2023-09-07T06:18:47.820Z,18.66
2023-09-07T06:21:55.708Z,18.80
2023-09-07T06:24:03.413Z,18.88
2023-09-07T06:26:08.448Z,19.02
2023-09-07T06:28:14.646Z,19.16
2023-09-07T06:30:21.326Z,19.30
2023-09-07T06:32:26.673Z,19.38
2023-09-07T06:34:32.109Z,19.52
2023-09-07T06:36:47.562Z,19.66
2023-09-07T06:38:55.697Z,19.77
2023-09-07T06:41:03.956Z,19.81
2023-09-07T06:43:25.210Z,19.82
2023-09-07T06:45:30.731Z,19.99
2023-09-07T06:47:36.477Z,20.04
2023-09-07T06:49:47.998Z,20.19
2023-09-07T06:51:56.197Z,20.27
2023-09-07T06:54:06.623Z,20.47
2023-09-07T06:56:15.018Z,20.61
2023-09-07T06:58:27.122Z,20.74
2023-09-07T07:00:33.127Z,20.95
2023-09-07T07:02:45.904Z,20.96
2023-09-07T07:04:53.008Z,21.05
2023-09-07T07:07:02.392Z,21.28
2023-09-07T07:09:10.535Z,21.30
2023-09-07T07:11:19.098Z,21.36
2023-09-07T07:13:26.928Z,21.53
2023-09-07T07:15:36.136Z,21.75
2023-09-07T07:17:42.811Z,21.80
2023-09-07T07:19:50.881Z,21.81
2023-09-07T07:21:56.145Z,22.05
2023-09-07T07:24:07.014Z,22.28
2023-09-07T07:26:14.636Z,22.27
2023-09-07T07:28:22.428Z,22.33
2023-09-07T07:30:37.676Z,22.48
2023-09-07T07:32:45.111Z,22.49
2023-09-07T07:34:50.960Z,22.84
2023-09-07T07:36:56.380Z,22.85
2023-09-07T07:39:06.058Z,22.78
2023-09-07T07:41:11.345Z,22.81
2023-09-07T07:43:16.690Z,22.97
2023-09-07T07:45:27.478Z,23.39
2023-09-07T07:47:32.538Z,23.59
2023-09-07T07:49:35.812Z,23.59
2023-09-07T07:51:44.418Z,23.57
2023-09-07T07:53:57.619Z,23.96
2023-09-07T07:56:02.690Z,23.94
2023-09-07T07:58:10.240Z,23.94
2023-09-07T08:00:18.421Z,23.92
2023-09-07T08:02:28.008Z,24.04
2023-09-07T08:04:34.159Z,24.20
2023-09-07T08:06:45.156Z,24.21
2023-09-07T08:09:07.926Z,24.30
2023-09-07T08:11:13.419Z,24.47
2023-09-07T08:13:22.230Z,24.58
2023-09-07T08:15:27.662Z,24.50
2023-09-07T08:17:35.775Z,24.92
2023-09-07T08:19:45.250Z,24.91
2023-09-07T08:21:52.711Z,24.75
2023-09-07T08:24:04.562Z,24.87
2023-09-07T08:26:17.567Z,25.07
2023-09-07T08:28:20.638Z,24.89
2023-09-07T08:30:27.608Z,24.75
2023-09-07T08:32:40.404Z,25.00
2023-09-07T08:34:45.900Z,25.02
2023-09-07T08:36:57.360Z,25.39
2023-09-07T08:39:07.280Z,25.62
2023-09-07T08:41:14.377Z,25.58
2023-09-07T08:43:25.575Z,25.52
2023-09-07T08:45:34.901Z,25.72
2023-09-07T08:47:46.176Z,25.83
2023-09-07T08:49:57.136Z,26.00
2023-09-07T08:52:12.823Z,26.20
2023-09-07T08:54:19.149Z,26.29
2023-09-07T08:56:34.004Z,26.27
2023-09-07T08:58:39.071Z,26.32
2023-09-07T09:00:47.540Z,26.42
2023-09-07T09:03:03.600Z,26.54
2023-09-07T09:05:10.449Z,26.50
2023-09-07T09:07:16.731Z,26.70
2023-09-07T09:09:26.678Z,26.84
2023-09-07T09:11:35.310Z,26.67
2023-09-07T09:13:40.520Z,26.76
2023-09-07T09:15:48.331Z,26.79
2023-09-07T09:18:01.270Z,26.96
2023-09-07T09:20:13.150Z,27.27
2023-09-07T09:22:22.504Z,27.57
2023-09-07T09:24:28.045Z,27.10
2023-09-07T09:26:32.947Z,27.18
2023-09-07T09:28:38.846Z,27.07
2023-09-07T09:30:46.486Z,27.44
2023-09-07T09:32:57.592Z,27.41
2023-09-07T09:35:04.408Z,27.28
2023-09-07T09:37:20.333Z,27.50
2023-09-07T09:39:29.268Z,27.69
2023-09-07T09:41:36.351Z,27.85
2023-09-07T09:43:41.870Z,27.93
2023-09-07T09:45:47.606Z,28.26
2023-09-07T09:48:01.172Z,27.72
2023-09-07T09:50:07.851Z,27.99
2023-09-07T09:52:14.396Z,28.07
2023-09-07T09:54:21.112Z,28.33
2023-09-07T09:56:27.724Z,28.20
2023-09-07T09:58:35.149Z,28.35
2023-09-07T10:00:41.516Z,28.14
2023-09-07T10:02:47.830Z,28.56
2023-09-07T10:04:56.108Z,28.36
2023-09-07T10:07:02.442Z,28.73
2023-09-07T10:09:13.085Z,28.02
2023-09-07T10:11:30.679Z,27.96
2023-09-07T10:13:37.639Z,28.77
2023-09-07T10:15:44.166Z,28.92
2023-09-07T10:17:51.586Z,28.87
2023-09-07T10:20:09.815Z,28.93
2023-09-07T10:22:26.071Z,29.13
2023-09-07T10:24:32.431Z,29.10
2023-09-07T10:26:37.642Z,28.90
2023-09-07T10:28:44.876Z,28.88
2023-09-07T10:30:49.763Z,29.28
2023-09-07T10:32:56.949Z,29.36
2023-09-07T10:35:04.260Z,29.23
2023-09-07T10:37:14.641Z,29.12
2023-09-07T10:39:21.602Z,29.42
2023-09-07T10:41:30.692Z,29.44
2023-09-07T10:43:45.483Z,29.44
2023-09-07T10:45:51.978Z,29.14
2023-09-07T10:47:57.120Z,29.17
2023-09-07T10:50:04.649Z,29.34
2023-09-07T10:52:13.461Z,29.73
2023-09-07T10:54:19.531Z,29.99
2023-09-07T10:56:31.752Z,29.86
2023-09-07T10:58:40.072Z,29.53
2023-09-07T11:00:45.610Z,29.75
2023-09-07T11:02:50.671Z,30.01
2023-09-07T11:04:56.394Z,30.32
2023-09-07T11:07:02.284Z,30.47
2023-09-07T11:09:12.433Z,30.62
2023-09-07T11:11:18.254Z,30.59
2023-09-07T11:13:26.722Z,30.71
2023-09-07T11:15:31.302Z,30.21
2023-09-07T11:17:36.745Z,30.43
2023-09-07T11:19:41.761Z,30.50
2023-09-07T11:21:47.140Z,30.42
2023-09-07T11:23:52.264Z,29.91
2023-09-07T11:26:00.035Z,30.17
2023-09-07T11:28:20.799Z,30.18
2023-09-07T11:30:26.027Z,30.35
2023-09-07T11:32:38.022Z,30.27
2023-09-07T11:34:52.701Z,30.60
2023-09-07T11:37:00.827Z,30.19
2023-09-07T11:39:12.033Z,30.06
2023-09-07T11:41:20.873Z,30.52
2023-09-07T11:43:26.303Z,30.17
2023-09-07T11:45:33.929Z,30.66
2023-09-07T11:47:39.286Z,30.72
2023-09-07T11:49:44.335Z,30.36
2023-09-07T11:51:51.228Z,30.79
2023-09-07T11:53:56.344Z,30.54
2023-09-07T11:56:02.501Z,30.84
2023-09-07T11:58:11.826Z,30.31
2023-09-07T12:00:19.836Z,30.69
2023-09-07T12:02:28.619Z,30.68
2023-09-07T12:04:34.850Z,30.91
2023-09-07T12:06:44.757Z,30.86
2023-09-07T12:09:03.141Z,30.80
2023-09-07T12:11:09.645Z,30.34
2023-09-07T12:13:17.541Z,30.72
2023-09-07T12:15:22.804Z,30.66
2023-09-07T12:17:26.554Z,31.14
2023-09-07T12:19:32.029Z,31.46
2023-09-07T12:21:37.105Z,31.55
2023-09-07T12:23:43.333Z,30.88
2023-09-07T12:25:52.540Z,30.76
2023-09-07T12:28:00.961Z,30.89
2023-09-07T12:30:13.935Z,30.75
2023-09-07T12:32:22.902Z,31.28
2023-09-07T12:34:32.317Z,31.53
2023-09-07T12:36:39.300Z,31.57
2023-09-07T12:38:44.710Z,31.56
2023-09-07T12:40:50.138Z,31.78
2023-09-07T12:42:56.141Z,31.88
2023-09-07T12:44:58.852Z,31.87
2023-09-07T12:47:06.643Z,31.31
2023-09-07T12:49:11.920Z,31.31
2023-09-07T12:51:17.514Z,31.53
2023-09-07T12:53:26.107Z,31.16
2023-09-07T12:55:31.499Z,31.75
2023-09-07T12:57:37.456Z,32.04
2023-09-07T12:59:45.348Z,32.03
2023-09-07T13:01:56.737Z,32.05
2023-09-07T13:04:04.502Z,32.14
2023-09-07T13:06:09.668Z,32.18
2023-09-07T13:08:15.228Z,31.94
2023-09-07T13:10:20.173Z,32.15
2023-09-07T13:12:27.313Z,32.04
2023-09-07T13:14:34.669Z,32.09
2023-09-07T13:16:45.266Z,32.23
2023-09-07T13:18:52.961Z,32.32
2023-09-07T13:21:03.372Z,31.91
2023-09-07T13:23:08.684Z,31.94
2023-09-07T13:25:14.181Z,32.02
2023-09-07T13:27:19.715Z,32.12
2023-09-07T13:29:26.222Z,32.15
2023-09-07T13:31:34.714Z,32.13
2023-09-07T13:33:45.180Z,32.33
2023-09-07T13:35:50.121Z,31.90
2023-09-07T13:38:06.314Z,31.88
2023-09-07T13:40:13.076Z,32.02
2023-09-07T13:42:18.947Z,32.34
2023-09-07T13:44:27.127Z,31.85
2023-09-07T13:46:34.872Z,31.69
2023-09-07T13:48:42.962Z,31.81
2023-09-07T13:50:50.323Z,31.88
2023-09-07T13:53:00.275Z,31.92
2023-09-07T13:55:06.635Z,31.86
2023-09-07T13:57:18.431Z,31.76
2023-09-07T13:59:23.593Z,31.66
2023-09-07T14:01:33.230Z,32.18
2023-09-07T14:03:39.326Z,31.99
2023-09-07T14:05:44.289Z,31.48
2023-09-07T14:07:49.772Z,31.74
2023-09-07T14:10:00.638Z,31.52
2023-09-07T14:12:05.846Z,31.90
2023-09-07T14:14:11.251Z,31.97
2023-09-07T14:16:17.584Z,32.08
2023-09-07T14:18:22.626Z,31.75
2023-09-07T14:20:27.908Z,31.96
2023-09-07T14:22:30.585Z,32.13
2023-09-07T14:24:35.642Z,32.04
2023-09-07T14:26:43.442Z,31.88
2023-09-07T14:28:48.554Z,32.07
2023-09-07T14:30:56.269Z,32.38
2023-09-07T14:33:01.622Z,32.15
2023-09-07T14:35:07.498Z,31.41
2023-09-07T14:37:12.690Z,31.03
2023-09-07T14:39:26.764Z,31.47
2023-09-07T14:41:32.476Z,31.37
2023-09-07T14:43:42.425Z,31.60
2023-09-07T14:45:48.404Z,31.77
2023-09-07T14:47:53.805Z,31.31
2023-09-07T14:49:59.721Z,31.05
2023-09-07T14:52:04.791Z,31.29
2023-09-07T14:54:10.064Z,31.24
2023-09-07T14:56:16.157Z,31.70
2023-09-07T14:58:21.489Z,31.80
2023-09-07T15:00:35.520Z,31.56
2023-09-07T15:02:40.883Z,31.63
2023-09-07T15:04:47.228Z,31.59
2023-09-07T15:06:52.433Z,31.76
2023-09-07T15:09:00.227Z,31.87
2023-09-07T15:11:05.288Z,31.83
2023-09-07T15:13:11.604Z,31.31
2023-09-07T15:15:19.929Z,31.28
2023-09-07T15:17:32.386Z,31.03
2023-09-07T15:19:37.880Z,31.12
2023-09-07T15:21:43.021Z,30.77
2023-09-07T15:23:49.720Z,31.01
2023-09-07T15:25:59.447Z,31.15
2023-09-07T15:28:09.971Z,31.47
2023-09-07T15:30:16.480Z,31.54
2023-09-07T15:32:23.410Z,31.35
2023-09-07T15:34:34.935Z,31.53
2023-09-07T15:36:45.167Z,31.65
2023-09-07T15:38:52.731Z,31.64
2023-09-07T15:40:58.732Z,31.46
2023-09-07T15:43:07.474Z,31.34
2023-09-07T15:45:13.731Z,31.32
2023-09-07T15:47:19.628Z,31.33
2023-09-07T15:49:28.412Z,31.20
2023-09-07T15:51:42.613Z,31.02
2023-09-07T15:53:50.005Z,30.89
2023-09-07T15:56:10.877Z,30.67
2023-09-07T15:58:30.095Z,30.36
2023-09-07T16:00:36.752Z,30.22
2023-09-07T16:02:44.868Z,30.29
2023-09-07T16:04:50.115Z,30.27
2023-09-07T16:07:00.899Z,30.15
2023-09-07T16:09:06.900Z,30.06
2023-09-07T16:11:14.137Z,29.95
2023-09-07T16:13:19.239Z,30.02
2023-09-07T16:15:27.228Z,29.80
2023-09-07T16:17:35.922Z,29.87
2023-09-07T16:19:46.602Z,29.61
2023-09-07T16:21:55.676Z,29.54
2023-09-07T16:24:03.444Z,29.55
2023-09-07T16:26:09.108Z,29.38
2023-09-07T16:28:14.356Z,29.37
2023-09-07T16:30:19.273Z,29.20
2023-09-07T16:32:24.543Z,29.13
2023-09-07T16:34:30.443Z,29.10
2023-09-07T16:36:48.493Z,29.05
2023-09-07T16:38:54.671Z,28.95
2023-09-07T16:41:07.664Z,28.86
2023-09-07T16:43:13.768Z,28.88
2023-09-07T16:45:18.955Z,28.72
2023-09-07T16:47:26.870Z,28.67
2023-09-07T16:49:32.032Z,28.67
2023-09-07T16:51:37.077Z,28.71
2023-09-07T16:53:44.109Z,28.71
2023-09-07T16:55:46.476Z,28.61
2023-09-07T16:57:55.950Z,28.55
2023-09-07T17:00:01.710Z,28.45
2023-09-07T17:02:10.117Z,28.42
2023-09-07T17:04:19.224Z,28.44
2023-09-07T17:06:35.619Z,28.36
2023-09-07T17:08:41.045Z,28.31
2023-09-07T17:10:47.288Z,28.16
2023-09-07T17:12:57.432Z,28.18
2023-09-07T17:15:02.891Z,28.15
2023-09-07T17:17:09.195Z,28.13
2023-09-07T17:19:16.234Z,28.15
2023-09-07T17:21:25.932Z,28.11
2023-09-07T17:23:36.829Z,28.01
2023-09-07T17:25:43.016Z,27.90
2023-09-07T17:27:49.156Z,27.88
2023-09-07T17:30:00.359Z,27.75
2023-09-07T17:32:05.703Z,27.64
2023-09-07T17:34:13.221Z,27.64
2023-09-07T17:36:17.279Z,27.56
2023-09-07T17:38:22.433Z,27.41
2023-09-07T17:40:27.759Z,27.36
2023-09-07T17:42:31.419Z,27.34
2023-09-07T17:44:36.657Z,27.24
2023-09-07T17:46:44.770Z,27.23
2023-09-07T17:48:52.795Z,27.15
2023-09-07T17:50:59.996Z,27.20
2023-09-07T17:53:05.114Z,27.06
2023-09-07T17:55:11.203Z,26.93
2023-09-07T17:57:13.581Z,26.75
2023-09-07T17:59:18.382Z,26.75
2023-09-07T18:01:23.923Z,26.60
2023-09-07T18:03:35.198Z,26.48
2023-09-07T18:05:40.367Z,26.38
2023-09-07T18:07:46.817Z,26.27
2023-09-07T18:09:52.141Z,26.20
2023-09-07T18:12:00.361Z,26.12
2023-09-07T18:14:12.969Z,26.04
2023-09-07T18:16:18.729Z,25.96
2023-09-07T18:18:23.941Z,25.80
2023-09-07T18:20:32.870Z,25.76
2023-09-07T18:22:42.926Z,25.70
2023-09-07T18:24:50.850Z,25.71
2023-09-07T18:26:58.639Z,25.59
2023-09-07T18:29:07.453Z,25.47
2023-09-07T18:31:10.046Z,25.34
2023-09-07T18:33:18.061Z,25.19
2023-09-07T18:35:23.170Z,25.10
2023-09-07T18:37:33.641Z,25.03
2023-09-07T18:39:38.951Z,24.90
2023-09-07T18:41:47.052Z,24.82
2023-09-07T18:43:53.288Z,24.74
2023-09-07T18:46:00.900Z,24.65
2023-09-07T18:48:06.213Z,24.57
2023-09-07T18:50:13.583Z,24.51
2023-09-07T18:52:18.886Z,24.44
2023-09-07T18:54:25.935Z,24.44
2023-09-07T18:56:30.903Z,24.44
2023-09-07T18:58:36.780Z,24.42
2023-09-07T19:00:43.940Z,24.38
2023-09-07T19:02:51.675Z,24.32
2023-09-07T19:04:59.173Z,24.28
2023-09-07T19:07:07.609Z,24.22
2023-09-07T19:09:11.645Z,24.16
2023-09-07T19:11:21.531Z,24.13
2023-09-07T19:13:26.791Z,24.08
2023-09-07T19:15:45.237Z,23.97
2023-09-07T19:17:50.221Z,23.89
2023-09-07T19:19:59.205Z,23.88
2023-09-07T19:22:04.149Z,23.82
2023-09-07T19:24:15.485Z,23.75
2023-09-07T19:26:33.828Z,23.66
2023-09-07T19:28:38.871Z,23.52
2023-09-07T19:30:47.212Z,23.48
2023-09-07T19:32:52.713Z,23.40
2023-09-07T19:34:58.096Z,23.33
2023-09-07T19:37:03.983Z,23.26
2023-09-07T19:39:12.268Z,23.19
2023-09-07T19:41:14.715Z,23.23
2023-09-07T19:43:22.442Z,23.16
2023-09-07T19:45:33.962Z,23.12
2023-09-07T19:47:38.949Z,23.05
2023-09-07T19:49:42.783Z,22.97
2023-09-07T19:51:47.741Z,22.89
2023-09-07T19:53:50.563Z,22.85
2023-09-07T19:55:56.253Z,22.79
2023-09-07T19:58:01.222Z,22.73
2023-09-07T20:00:10.419Z,22.74
2023-09-07T20:02:15.930Z,22.79
2023-09-07T20:04:18.512Z,22.77
2023-09-07T20:06:38.283Z,22.77
2023-09-07T20:08:43.766Z,22.73
2023-09-07T20:10:48.879Z,22.72
2023-09-07T20:12:58.863Z,22.71
2023-09-07T20:15:04.265Z,22.66
2023-09-07T20:17:13.154Z,22.58
2023-09-07T20:19:18.679Z,22.53
2023-09-07T20:21:23.953Z,22.49
2023-09-07T20:23:35.376Z,22.46
2023-09-07T20:25:41.160Z,22.44
2023-09-07T20:27:46.232Z,22.37
2023-09-07T20:29:51.549Z,22.32
2023-09-07T20:31:56.667Z,22.27
2023-09-07T20:34:04.903Z,22.23
2023-09-07T20:36:08.440Z,22.17
2023-09-07T20:38:13.765Z,22.14
2023-09-07T20:40:19.220Z,22.10
2023-09-07T20:42:26.445Z,22.07
2023-09-07T20:44:32.960Z,22.04
2023-09-07T20:46:56.388Z,21.97
2023-09-07T20:49:06.384Z,21.85
2023-09-07T20:51:15.828Z,21.77
2023-09-07T20:53:22.170Z,21.69
2023-09-07T20:55:27.331Z,21.61
2023-09-07T20:57:32.262Z,21.63
2023-09-07T20:59:39.056Z,21.59
2023-09-07T21:01:46.247Z,21.54
2023-09-07T21:03:52.846Z,21.47
2023-09-07T21:06:00.637Z,21.41
2023-09-07T21:08:07.470Z,21.34
2023-09-07T21:10:13.834Z,21.29
2023-09-07T21:12:18.957Z,21.21
2023-09-07T21:14:24.636Z,21.17
2023-09-07T21:16:33.053Z,21.14
2023-09-07T21:18:38.451Z,21.07
2023-09-07T21:20:50.928Z,21.02
2023-09-07T21:23:02.087Z,21.00
2023-09-07T21:25:09.187Z,20.97
2023-09-07T21:27:18.390Z,20.93
2023-09-07T21:29:25.935Z,20.91
2023-09-07T21:31:32.850Z,20.87
2023-09-07T21:33:38.532Z,20.84
2023-09-07T21:35:44.688Z,20.82
2023-09-07T21:37:50.003Z,20.82
2023-09-07T21:40:01.141Z,20.80
2023-09-07T21:42:06.726Z,20.74
2023-09-07T21:44:12.071Z,20.69
2023-09-07T21:46:17.301Z,20.64
2023-09-07T21:48:22.649Z,20.60
2023-09-07T21:50:30.565Z,20.58
2023-09-07T21:52:35.555Z,20.50
2023-09-07T21:54:40.651Z,20.48
2023-09-07T21:56:48.404Z,20.45
2023-09-07T21:58:54.579Z,20.43
2023-09-07T22:00:59.837Z,20.37
2023-09-07T22:03:05.247Z,20.36
2023-09-07T22:05:11.528Z,20.36
2023-09-07T22:07:16.853Z,20.34
2023-09-07T22:09:22.011Z,20.34
2023-09-07T22:11:27.674Z,20.33
2023-09-07T22:13:35.616Z,20.26
2023-09-07T22:15:40.688Z,20.23
2023-09-07T22:17:48.680Z,20.18
2023-09-07T22:19:54.714Z,20.14
2023-09-07T22:21:57.220Z,20.09
2023-09-07T22:24:02.593Z,20.06
2023-09-07T22:26:05.103Z,20.03
2023-09-07T22:28:10.960Z,19.99
2023-09-07T22:30:19.476Z,19.95
2023-09-07T22:32:27.241Z,20.01
2023-09-07T22:34:33.226Z,20.01
2023-09-07T22:36:38.367Z,20.00
2023-09-07T22:38:46.428Z,19.97
2023-09-07T22:40:51.900Z,19.94
2023-09-07T22:42:56.921Z,19.95
2023-09-07T22:45:02.068Z,19.91
2023-09-07T22:47:09.877Z,19.87
2023-09-07T22:49:18.525Z,19.84
2023-09-07T22:51:26.700Z,19.83
2023-09-07T22:53:32.646Z,19.80
2023-09-07T22:55:47.155Z,19.78
2023-09-07T22:57:54.728Z,19.72
2023-09-07T23:00:00.813Z,19.67
2023-09-07T23:02:03.649Z,19.62
2023-09-07T23:04:11.883Z,19.57
2023-09-07T23:06:17.353Z,19.50
2023-09-07T23:08:20.141Z,19.46
2023-09-07T23:10:27.127Z,19.47
2023-09-07T23:12:32.314Z,19.44
2023-09-07T23:14:37.410Z,19.45
2023-09-07T23:16:42.674Z,19.41
2023-09-07T23:18:47.812Z,19.41
2023-09-07T23:21:01.003Z,19.37
2023-09-07T23:23:06.129Z,19.38
2023-09-07T23:25:12.649Z,19.36
2023-09-07T23:27:15.328Z,19.27
2023-09-07T23:29:20.094Z,19.19
2023-09-07T23:31:26.647Z,19.17
2023-09-07T23:33:32.418Z,19.13
2023-09-07T23:35:37.480Z,19.12
2023-09-07T23:37:47.913Z,19.06
2023-09-07T23:39:53.020Z,19.02
2023-09-07T23:42:01.266Z,19.02
2023-09-07T23:44:06.576Z,19.02
2023-09-07T23:46:12.577Z,19.00
2023-09-07T23:48:18.087Z,19.01
2023-09-07T23:50:23.268Z,19.00
2023-09-07T23:52:32.060Z,18.98
2023-09-07T23:54:39.669Z,18.92
2023-09-07T23:56:44.905Z,18.89
2023-09-07T23:58:50.024Z,18.93
